sensor_id;sensor_type;location;lat;lon;timestamp;P1;durP1;ratioP1;P2;durP2;ratioP2
44169;SDS011;29836;52.286;9.576;2023-02-28T00:02:17;4.13;;;2.10;;
44169;SDS011;29836;52.286;9.576;2023-02-28T00:04:42;5.18;;;2.10;;
44169;SDS011;29836;52.286;9.576;2023-02-28T00:07:08;3.58;;;1.65;;
44169;SDS011;29836;52.286;9.576;2023-02-28T00:09:34;7.28;;;2.53;;
44169;SDS011;29836;52.286;9.576;2023-02-28T00:12:00;3.42;;;2.08;;
44169;SDS011;29836;52.286;9.576;2023-02-28T00:14:29;5.07;;;2.25;;
44169;SDS011;29836;52.286;9.576;2023-02-28T00:16:55;7.75;;;2.28;;
44169;SDS011;29836;52.286;9.576;2023-02-28T00:19:20;6.10;;;2.15;;
44169;SDS011;29836;52.286;9.576;2023-02-28T00:21:46;4.53;;;1.85;;
44169;SDS011;29836;52.286;9.576;2023-02-28T00:24:11;4.63;;;2.65;;
44169;SDS011;29836;52.286;9.576;2023-02-28T00:26:37;4.45;;;2.05;;
44169;SDS011;29836;52.286;9.576;2023-02-28T00:29:02;4.82;;;2.15;;
44169;SDS011;29836;52.286;9.576;2023-02-28T00:31:28;3.13;;;1.85;;
44169;SDS011;29836;52.286;9.576;2023-02-28T00:33:53;5.25;;;2.30;;
44169;SDS011;29836;52.286;9.576;2023-02-28T00:36:19;3.47;;;2.13;;
44169;SDS011;29836;52.286;9.576;2023-02-28T00:38:44;5.18;;;2.58;;
44169;SDS011;29836;52.286;9.576;2023-02-28T00:41:10;4.25;;;2.05;;
44169;SDS011;29836;52.286;9.576;2023-02-28T00:43:36;5.55;;;2.67;;
44169;SDS011;29836;52.286;9.576;2023-02-28T00:46:04;9.43;;;2.55;;
44169;SDS011;29836;52.286;9.576;2023-02-28T00:48:30;4.45;;;2.55;;
44169;SDS011;29836;52.286;9.576;2023-02-28T00:50:56;4.20;;;2.22;;
44169;SDS011;29836;52.286;9.576;2023-02-28T00:53:22;4.38;;;2.08;;
44169;SDS011;29836;52.286;9.576;2023-02-28T00:55:48;6.28;;;2.45;;
44169;SDS011;29836;52.286;9.576;2023-02-28T00:58:14;3.90;;;2.80;;
44169;SDS011;29836;52.286;9.576;2023-02-28T01:00:40;4.50;;;2.40;;
44169;SDS011;29836;52.286;9.576;2023-02-28T01:03:05;6.22;;;2.53;;
44169;SDS011;29836;52.286;9.576;2023-02-28T01:05:31;4.50;;;2.55;;
44169;SDS011;29836;52.286;9.576;2023-02-28T01:07:56;3.38;;;2.05;;
44169;SDS011;29836;52.286;9.576;2023-02-28T01:10:22;3.83;;;2.67;;
44169;SDS011;29836;52.286;9.576;2023-02-28T01:12:48;3.33;;;2.03;;
44169;SDS011;29836;52.286;9.576;2023-02-28T01:15:13;5.55;;;2.72;;
44169;SDS011;29836;52.286;9.576;2023-02-28T01:17:39;3.25;;;2.20;;
44169;SDS011;29836;52.286;9.576;2023-02-28T01:20:04;5.60;;;2.67;;
44169;SDS011;29836;52.286;9.576;2023-02-28T01:22:30;4.38;;;2.55;;
44169;SDS011;29836;52.286;9.576;2023-02-28T01:24:56;5.70;;;2.70;;
44169;SDS011;29836;52.286;9.576;2023-02-28T01:27:21;4.90;;;2.40;;
44169;SDS011;29836;52.286;9.576;2023-02-28T01:29:47;10.05;;;2.42;;
44169;SDS011;29836;52.286;9.576;2023-02-28T01:32:12;8.50;;;3.05;;
44169;SDS011;29836;52.286;9.576;2023-02-28T01:34:38;5.63;;;2.40;;
44169;SDS011;29836;52.286;9.576;2023-02-28T01:37:03;5.40;;;2.83;;
44169;SDS011;29836;52.286;9.576;2023-02-28T01:39:29;3.97;;;2.30;;
44169;SDS011;29836;52.286;9.576;2023-02-28T01:41:55;6.28;;;2.15;;
44169;SDS011;29836;52.286;9.576;2023-02-28T01:47:23;7.40;;;2.33;;
44169;SDS011;29836;52.286;9.576;2023-02-28T01:49:53;6.15;;;2.92;;
44169;SDS011;29836;52.286;9.576;2023-02-28T01:52:19;4.28;;;2.50;;
44169;SDS011;29836;52.286;9.576;2023-02-28T01:54:47;5.13;;;1.77;;
44169;SDS011;29836;52.286;9.576;2023-02-28T01:57:17;2.67;;;1.42;;
44169;SDS011;29836;52.286;9.576;2023-02-28T01:59:48;4.45;;;1.95;;
44169;SDS011;29836;52.286;9.576;2023-02-28T02:02:19;3.22;;;1.48;;
44169;SDS011;29836;52.286;9.576;2023-02-28T02:04:51;1.88;;;1.15;;
44169;SDS011;29836;52.286;9.576;2023-02-28T02:07:23;3.83;;;1.40;;
44169;SDS011;29836;52.286;9.576;2023-02-28T02:09:58;3.55;;;1.90;;
44169;SDS011;29836;52.286;9.576;2023-02-28T02:12:42;4.05;;;1.48;;
44169;SDS011;29836;52.286;9.576;2023-02-28T02:15:28;3.20;;;1.60;;
44169;SDS011;29836;52.286;9.576;2023-02-28T02:18:19;2.28;;;1.05;;
44169;SDS011;29836;52.286;9.576;2023-02-28T02:34:59;3.47;;;1.63;;
44169;SDS011;29836;52.286;9.576;2023-02-28T02:45:34;4.82;;;2.45;;
44169;SDS011;29836;52.286;9.576;2023-02-28T02:48:09;7.13;;;2.83;;
44169;SDS011;29836;52.286;9.576;2023-02-28T02:50:40;3.03;;;1.67;;
44169;SDS011;29836;52.286;9.576;2023-02-28T02:53:10;7.18;;;2.45;;
44169;SDS011;29836;52.286;9.576;2023-02-28T02:55:40;3.20;;;1.88;;
44169;SDS011;29836;52.286;9.576;2023-02-28T02:58:09;3.00;;;1.80;;
44169;SDS011;29836;52.286;9.576;2023-02-28T03:00:43;9.00;;;2.25;;
44169;SDS011;29836;52.286;9.576;2023-02-28T03:03:12;3.90;;;2.25;;
44169;SDS011;29836;52.286;9.576;2023-02-28T03:05:44;3.75;;;2.10;;
44169;SDS011;29836;52.286;9.576;2023-02-28T03:08:13;4.10;;;1.83;;
44169;SDS011;29836;52.286;9.576;2023-02-28T03:10:40;3.80;;;1.88;;
44169;SDS011;29836;52.286;9.576;2023-02-28T03:19:06;3.00;;;2.28;;
44169;SDS011;29836;52.286;9.576;2023-02-28T03:21:40;2.90;;;2.05;;
44169;SDS011;29836;52.286;9.576;2023-02-28T03:24:21;4.47;;;1.83;;
44169;SDS011;29836;52.286;9.576;2023-02-28T03:30:06;2.15;;;1.25;;
44169;SDS011;29836;52.286;9.576;2023-02-28T03:32:54;2.28;;;1.40;;
44169;SDS011;29836;52.286;9.576;2023-02-28T03:35:25;1.63;;;1.25;;
44169;SDS011;29836;52.286;9.576;2023-02-28T03:37:59;2.58;;;1.55;;
44169;SDS011;29836;52.286;9.576;2023-02-28T03:40:30;3.00;;;1.55;;
44169;SDS011;29836;52.286;9.576;2023-02-28T03:43:01;3.35;;;1.60;;
44169;SDS011;29836;52.286;9.576;2023-02-28T03:45:33;2.67;;;1.30;;
44169;SDS011;29836;52.286;9.576;2023-02-28T03:48:03;2.88;;;1.23;;
44169;SDS011;29836;52.286;9.576;2023-02-28T03:50:35;3.28;;;1.55;;
44169;SDS011;29836;52.286;9.576;2023-02-28T03:53:06;1.15;;;1.00;;
44169;SDS011;29836;52.286;9.576;2023-02-28T03:55:50;2.03;;;1.23;;
44169;SDS011;29836;52.286;9.576;2023-02-28T03:58:24;1.60;;;1.10;;
44169;SDS011;29836;52.286;9.576;2023-02-28T04:01:10;1.50;;;1.02;;
44169;SDS011;29836;52.286;9.576;2023-02-28T04:03:40;2.17;;;1.10;;
44169;SDS011;29836;52.286;9.576;2023-02-28T04:06:06;2.75;;;1.38;;
44169;SDS011;29836;52.286;9.576;2023-02-28T04:08:37;1.35;;;0.70;;
44169;SDS011;29836;52.286;9.576;2023-02-28T04:11:04;1.60;;;1.15;;
44169;SDS011;29836;52.286;9.576;2023-02-28T04:13:39;3.38;;;1.00;;
44169;SDS011;29836;52.286;9.576;2023-02-28T04:16:08;2.47;;;0.90;;
44169;SDS011;29836;52.286;9.576;2023-02-28T04:18:37;1.45;;;1.00;;
44169;SDS011;29836;52.286;9.576;2023-02-28T04:21:03;2.13;;;1.00;;
44169;SDS011;29836;52.286;9.576;2023-02-28T04:23:30;1.75;;;0.93;;
44169;SDS011;29836;52.286;9.576;2023-02-28T04:25:56;1.02;;;0.90;;
44169;SDS011;29836;52.286;9.576;2023-02-28T04:28:21;3.00;;;1.20;;
44169;SDS011;29836;52.286;9.576;2023-02-28T04:30:47;1.63;;;1.17;;
44169;SDS011;29836;52.286;9.576;2023-02-28T04:33:13;0.98;;;0.70;;
44169;SDS011;29836;52.286;9.576;2023-02-28T04:35:38;1.10;;;0.77;;
44169;SDS011;29836;52.286;9.576;2023-02-28T04:38:04;1.70;;;1.00;;
44169;SDS011;29836;52.286;9.576;2023-02-28T04:40:29;1.17;;;0.75;;
44169;SDS011;29836;52.286;9.576;2023-02-28T04:42:55;2.03;;;1.10;;
44169;SDS011;29836;52.286;9.576;2023-02-28T04:45:20;1.33;;;1.00;;
44169;SDS011;29836;52.286;9.576;2023-02-28T04:47:46;4.97;;;1.30;;
44169;SDS011;29836;52.286;9.576;2023-02-28T04:50:11;2.05;;;1.30;;
44169;SDS011;29836;52.286;9.576;2023-02-28T04:52:37;3.08;;;1.40;;
44169;SDS011;29836;52.286;9.576;2023-02-28T04:55:02;2.50;;;1.20;;
44169;SDS011;29836;52.286;9.576;2023-02-28T04:57:28;3.38;;;2.00;;
44169;SDS011;29836;52.286;9.576;2023-02-28T04:59:54;4.85;;;1.20;;
44169;SDS011;29836;52.286;9.576;2023-02-28T05:02:20;1.95;;;1.02;;
44169;SDS011;29836;52.286;9.576;2023-02-28T05:04:46;1.80;;;1.40;;
44169;SDS011;29836;52.286;9.576;2023-02-28T05:07:11;2.22;;;0.90;;
44169;SDS011;29836;52.286;9.576;2023-02-28T05:09:37;2.30;;;1.13;;
44169;SDS011;29836;52.286;9.576;2023-02-28T05:12:02;1.30;;;0.85;;
44169;SDS011;29836;52.286;9.576;2023-02-28T05:14:28;5.93;;;1.45;;
44169;SDS011;29836;52.286;9.576;2023-02-28T05:16:53;2.10;;;1.23;;
44169;SDS011;29836;52.286;9.576;2023-02-28T05:19:19;1.85;;;1.23;;
44169;SDS011;29836;52.286;9.576;2023-02-28T05:21:50;3.20;;;1.42;;
44169;SDS011;29836;52.286;9.576;2023-02-28T05:24:17;1.95;;;1.33;;
44169;SDS011;29836;52.286;9.576;2023-02-28T05:26:48;2.20;;;1.13;;
44169;SDS011;29836;52.286;9.576;2023-02-28T05:29:16;1.65;;;1.20;;
44169;SDS011;29836;52.286;9.576;2023-02-28T05:31:42;1.30;;;0.98;;
44169;SDS011;29836;52.286;9.576;2023-02-28T05:34:07;3.60;;;1.15;;
44169;SDS011;29836;52.286;9.576;2023-02-28T05:36:36;3.33;;;1.08;;
44169;SDS011;29836;52.286;9.576;2023-02-28T05:39:02;6.35;;;1.40;;
44169;SDS011;29836;52.286;9.576;2023-02-28T05:41:28;1.80;;;1.42;;
44169;SDS011;29836;52.286;9.576;2023-02-28T05:43:53;3.97;;;1.35;;
44169;SDS011;29836;52.286;9.576;2023-02-28T05:46:19;5.70;;;1.60;;
44169;SDS011;29836;52.286;9.576;2023-02-28T05:48:45;2.47;;;1.35;;
44169;SDS011;29836;52.286;9.576;2023-02-28T05:51:12;2.17;;;1.48;;
44169;SDS011;29836;52.286;9.576;2023-02-28T05:53:38;1.48;;;1.13;;
44169;SDS011;29836;52.286;9.576;2023-02-28T05:56:03;1.65;;;1.10;;
44169;SDS011;29836;52.286;9.576;2023-02-28T05:58:29;4.35;;;1.05;;
44169;SDS011;29836;52.286;9.576;2023-02-28T06:00:59;1.23;;;1.05;;
44169;SDS011;29836;52.286;9.576;2023-02-28T06:03:26;2.08;;;1.23;;
44169;SDS011;29836;52.286;9.576;2023-02-28T06:05:52;2.28;;;1.30;;
44169;SDS011;29836;52.286;9.576;2023-02-28T06:08:17;4.00;;;1.98;;
44169;SDS011;29836;52.286;9.576;2023-02-28T06:10:43;3.25;;;1.70;;
44169;SDS011;29836;52.286;9.576;2023-02-28T06:13:09;3.90;;;2.08;;
44169;SDS011;29836;52.286;9.576;2023-02-28T06:15:36;3.38;;;2.28;;
44169;SDS011;29836;52.286;9.576;2023-02-28T06:18:02;5.28;;;2.42;;
44169;SDS011;29836;52.286;9.576;2023-02-28T06:20:27;2.53;;;1.92;;
44169;SDS011;29836;52.286;9.576;2023-02-28T06:22:54;4.07;;;2.28;;
44169;SDS011;29836;52.286;9.576;2023-02-28T06:25:26;6.25;;;3.13;;
44169;SDS011;29836;52.286;9.576;2023-02-28T06:27:53;4.53;;;2.65;;
44169;SDS011;29836;52.286;9.576;2023-02-28T06:30:19;4.15;;;2.95;;
44169;SDS011;29836;52.286;9.576;2023-02-28T06:32:49;6.35;;;2.63;;
44169;SDS011;29836;52.286;9.576;2023-02-28T06:35:15;4.90;;;2.63;;
44169;SDS011;29836;52.286;9.576;2023-02-28T06:37:40;5.60;;;2.25;;
44169;SDS011;29836;52.286;9.576;2023-02-28T06:40:07;3.15;;;1.60;;
44169;SDS011;29836;52.286;9.576;2023-02-28T06:42:33;3.15;;;1.60;;
44169;SDS011;29836;52.286;9.576;2023-02-28T06:44:59;13.00;;;2.00;;
44169;SDS011;29836;52.286;9.576;2023-02-28T06:47:25;1.40;;;1.08;;
44169;SDS011;29836;52.286;9.576;2023-02-28T06:49:50;4.40;;;1.95;;
44169;SDS011;29836;52.286;9.576;2023-02-28T06:52:16;3.08;;;1.52;;
44169;SDS011;29836;52.286;9.576;2023-02-28T06:54:41;6.38;;;2.25;;
44169;SDS011;29836;52.286;9.576;2023-02-28T06:57:07;2.65;;;1.75;;
44169;SDS011;29836;52.286;9.576;2023-02-28T06:59:33;3.45;;;2.00;;
44169;SDS011;29836;52.286;9.576;2023-02-28T07:02:00;1.83;;;1.30;;
44169;SDS011;29836;52.286;9.576;2023-02-28T07:04:27;3.50;;;1.45;;
44169;SDS011;29836;52.286;9.576;2023-02-28T07:06:52;3.78;;;1.70;;
44169;SDS011;29836;52.286;9.576;2023-02-28T07:09:20;3.72;;;1.73;;
44169;SDS011;29836;52.286;9.576;2023-02-28T07:11:46;3.70;;;1.92;;
44169;SDS011;29836;52.286;9.576;2023-02-28T07:14:12;3.45;;;1.92;;
44169;SDS011;29836;52.286;9.576;2023-02-28T07:16:37;4.30;;;1.92;;
44169;SDS011;29836;52.286;9.576;2023-02-28T07:19:03;2.95;;;1.33;;
44169;SDS011;29836;52.286;9.576;2023-02-28T07:21:28;5.05;;;1.52;;
44169;SDS011;29836;52.286;9.576;2023-02-28T07:23:55;2.20;;;1.27;;
44169;SDS011;29836;52.286;9.576;2023-02-28T07:26:21;3.83;;;1.80;;
44169;SDS011;29836;52.286;9.576;2023-02-28T07:28:47;4.07;;;2.22;;
44169;SDS011;29836;52.286;9.576;2023-02-28T07:31:14;3.70;;;1.63;;
44169;SDS011;29836;52.286;9.576;2023-02-28T07:33:40;3.50;;;2.15;;
44169;SDS011;29836;52.286;9.576;2023-02-28T07:36:10;3.70;;;1.90;;
44169;SDS011;29836;52.286;9.576;2023-02-28T07:38:43;6.13;;;1.90;;
44169;SDS011;29836;52.286;9.576;2023-02-28T07:41:12;4.72;;;1.98;;
44169;SDS011;29836;52.286;9.576;2023-02-28T07:43:38;1.95;;;1.63;;
44169;SDS011;29836;52.286;9.576;2023-02-28T07:46:05;3.08;;;1.65;;
44169;SDS011;29836;52.286;9.576;2023-02-28T07:48:32;6.07;;;2.42;;
44169;SDS011;29836;52.286;9.576;2023-02-28T07:50:58;3.53;;;1.63;;
44169;SDS011;29836;52.286;9.576;2023-02-28T07:53:25;3.30;;;1.80;;
44169;SDS011;29836;52.286;9.576;2023-02-28T07:55:54;3.35;;;1.63;;
44169;SDS011;29836;52.286;9.576;2023-02-28T07:58:24;2.28;;;1.80;;
44169;SDS011;29836;52.286;9.576;2023-02-28T08:00:50;3.25;;;1.70;;
44169;SDS011;29836;52.286;9.576;2023-02-28T08:03:17;7.47;;;1.80;;
44169;SDS011;29836;52.286;9.576;2023-02-28T08:05:44;5.07;;;1.80;;
44169;SDS011;29836;52.286;9.576;2023-02-28T08:08:10;2.38;;;1.45;;
44169;SDS011;29836;52.286;9.576;2023-02-28T08:10:36;3.28;;;1.77;;
44169;SDS011;29836;52.286;9.576;2023-02-28T08:13:02;5.28;;;1.95;;
44169;SDS011;29836;52.286;9.576;2023-02-28T08:15:27;2.83;;;1.55;;
44169;SDS011;29836;52.286;9.576;2023-02-28T08:17:53;3.72;;;1.88;;
44169;SDS011;29836;52.286;9.576;2023-02-28T08:20:21;3.53;;;1.52;;
44169;SDS011;29836;52.286;9.576;2023-02-28T08:22:47;4.20;;;1.85;;
44169;SDS011;29836;52.286;9.576;2023-02-28T08:25:12;2.95;;;1.70;;
44169;SDS011;29836;52.286;9.576;2023-02-28T08:27:38;3.33;;;1.90;;
44169;SDS011;29836;52.286;9.576;2023-02-28T08:30:04;4.82;;;1.90;;
44169;SDS011;29836;52.286;9.576;2023-02-28T08:32:31;4.47;;;1.95;;
44169;SDS011;29836;52.286;9.576;2023-02-28T08:34:58;3.10;;;1.80;;
44169;SDS011;29836;52.286;9.576;2023-02-28T08:37:23;3.83;;;2.40;;
44169;SDS011;29836;52.286;9.576;2023-02-28T08:39:49;7.00;;;2.63;;
44169;SDS011;29836;52.286;9.576;2023-02-28T08:42:15;4.70;;;2.00;;
44169;SDS011;29836;52.286;9.576;2023-02-28T08:44:41;4.93;;;2.40;;
44169;SDS011;29836;52.286;9.576;2023-02-28T08:47:07;5.25;;;1.85;;
44169;SDS011;29836;52.286;9.576;2023-02-28T08:49:32;5.80;;;2.30;;
44169;SDS011;29836;52.286;9.576;2023-02-28T08:51:58;3.42;;;2.25;;
44169;SDS011;29836;52.286;9.576;2023-02-28T08:54:24;5.90;;;2.50;;
44169;SDS011;29836;52.286;9.576;2023-02-28T08:56:49;8.73;;;2.58;;
44169;SDS011;29836;52.286;9.576;2023-02-28T08:59:15;5.70;;;2.45;;
44169;SDS011;29836;52.286;9.576;2023-02-28T09:01:41;6.78;;;2.72;;
44169;SDS011;29836;52.286;9.576;2023-02-28T09:04:08;9.73;;;2.75;;
44169;SDS011;29836;52.286;9.576;2023-02-28T09:06:36;6.68;;;2.13;;
44169;SDS011;29836;52.286;9.576;2023-02-28T09:09:01;4.35;;;2.35;;
44169;SDS011;29836;52.286;9.576;2023-02-28T09:11:29;5.80;;;2.22;;
44169;SDS011;29836;52.286;9.576;2023-02-28T09:13:55;6.68;;;2.85;;
44169;SDS011;29836;52.286;9.576;2023-02-28T09:16:21;4.20;;;2.40;;
44169;SDS011;29836;52.286;9.576;2023-02-28T09:18:47;5.70;;;2.50;;
44169;SDS011;29836;52.286;9.576;2023-02-28T09:21:17;5.38;;;2.20;;
44169;SDS011;29836;52.286;9.576;2023-02-28T09:23:44;5.05;;;2.30;;
44169;SDS011;29836;52.286;9.576;2023-02-28T09:26:18;4.40;;;2.03;;
44169;SDS011;29836;52.286;9.576;2023-02-28T09:28:48;4.55;;;2.30;;
44169;SDS011;29836;52.286;9.576;2023-02-28T09:31:19;5.57;;;2.08;;
44169;SDS011;29836;52.286;9.576;2023-02-28T09:33:49;3.85;;;2.17;;
44169;SDS011;29836;52.286;9.576;2023-02-28T09:36:16;5.55;;;2.20;;
44169;SDS011;29836;52.286;9.576;2023-02-28T09:38:43;3.63;;;2.20;;
44169;SDS011;29836;52.286;9.576;2023-02-28T09:41:11;7.57;;;2.13;;
44169;SDS011;29836;52.286;9.576;2023-02-28T09:43:40;4.07;;;2.40;;
44169;SDS011;29836;52.286;9.576;2023-02-28T09:46:25;7.40;;;2.30;;
44169;SDS011;29836;52.286;9.576;2023-02-28T09:48:59;4.35;;;2.15;;
44169;SDS011;29836;52.286;9.576;2023-02-28T09:51:30;6.45;;;2.28;;
44169;SDS011;29836;52.286;9.576;2023-02-28T09:53:58;7.53;;;2.75;;
44169;SDS011;29836;52.286;9.576;2023-02-28T09:56:25;4.20;;;1.77;;
44169;SDS011;29836;52.286;9.576;2023-02-28T09:59:02;3.83;;;1.88;;
44169;SDS011;29836;52.286;9.576;2023-02-28T10:04:46;2.85;;;1.83;;
44169;SDS011;29836;52.286;9.576;2023-02-28T10:07:36;3.83;;;1.73;;
44169;SDS011;29836;52.286;9.576;2023-02-28T10:10:04;3.47;;;2.00;;
44169;SDS011;29836;52.286;9.576;2023-02-28T10:12:43;4.30;;;1.83;;
44169;SDS011;29836;52.286;9.576;2023-02-28T10:15:13;3.60;;;1.73;;
44169;SDS011;29836;52.286;9.576;2023-02-28T10:17:40;3.60;;;1.85;;
44169;SDS011;29836;52.286;9.576;2023-02-28T10:20:11;2.88;;;1.60;;
44169;SDS011;29836;52.286;9.576;2023-02-28T10:23:03;2.97;;;1.83;;
44169;SDS011;29836;52.286;9.576;2023-02-28T10:25:37;4.38;;;1.45;;
44169;SDS011;29836;52.286;9.576;2023-02-28T10:28:11;3.85;;;1.70;;
44169;SDS011;29836;52.286;9.576;2023-02-28T10:30:51;3.63;;;1.37;;
44169;SDS011;29836;52.286;9.576;2023-02-28T10:35:53;2.70;;;1.60;;
44169;SDS011;29836;52.286;9.576;2023-02-28T10:38:20;2.25;;;1.45;;
44169;SDS011;29836;52.286;9.576;2023-02-28T10:40:49;2.63;;;1.48;;
44169;SDS011;29836;52.286;9.576;2023-02-28T10:48:34;3.60;;;1.52;;
44169;SDS011;29836;52.286;9.576;2023-02-28T10:51:04;3.28;;;1.63;;
44169;SDS011;29836;52.286;9.576;2023-02-28T10:58:28;2.50;;;1.48;;
44169;SDS011;29836;52.286;9.576;2023-02-28T11:00:56;3.65;;;1.40;;
44169;SDS011;29836;52.286;9.576;2023-02-28T11:03:23;3.22;;;1.60;;
44169;SDS011;29836;52.286;9.576;2023-02-28T11:06:07;3.35;;;1.58;;
44169;SDS011;29836;52.286;9.576;2023-02-28T11:08:48;2.30;;;1.45;;
44169;SDS011;29836;52.286;9.576;2023-02-28T11:11:16;1.73;;;1.10;;
44169;SDS011;29836;52.286;9.576;2023-02-28T11:13:43;1.73;;;1.10;;
44169;SDS011;29836;52.286;9.576;2023-02-28T11:16:11;3.40;;;1.40;;
44169;SDS011;29836;52.286;9.576;2023-02-28T11:18:40;1.45;;;0.88;;
44169;SDS011;29836;52.286;9.576;2023-02-28T11:21:10;3.45;;;1.08;;
44169;SDS011;29836;52.286;9.576;2023-02-28T11:23:43;1.85;;;1.05;;
44169;SDS011;29836;52.286;9.576;2023-02-28T11:26:09;2.08;;;1.20;;
44169;SDS011;29836;52.286;9.576;2023-02-28T11:28:37;2.05;;;1.20;;
44169;SDS011;29836;52.286;9.576;2023-02-28T11:36:19;1.92;;;0.95;;
44169;SDS011;29836;52.286;9.576;2023-02-28T11:38:45;1.50;;;0.80;;
44169;SDS011;29836;52.286;9.576;2023-02-28T11:43:53;1.95;;;1.08;;
44169;SDS011;29836;52.286;9.576;2023-02-28T11:48:58;2.13;;;1.10;;
44169;SDS011;29836;52.286;9.576;2023-02-28T11:51:41;1.77;;;1.00;;
44169;SDS011;29836;52.286;9.576;2023-02-28T11:54:34;1.70;;;0.95;;
44169;SDS011;29836;52.286;9.576;2023-02-28T12:00:08;1.20;;;1.05;;
44169;SDS011;29836;52.286;9.576;2023-02-28T12:03:06;1.33;;;0.90;;
44169;SDS011;29836;52.286;9.576;2023-02-28T12:05:42;1.30;;;0.88;;
44169;SDS011;29836;52.286;9.576;2023-02-28T12:08:23;1.52;;;1.00;;
44169;SDS011;29836;52.286;9.576;2023-02-28T12:13:37;2.17;;;1.47;;
44169;SDS011;29836;52.286;9.576;2023-02-28T12:16:13;5.20;;;1.35;;
44169;SDS011;29836;52.286;9.576;2023-02-28T12:21:47;2.65;;;1.30;;
44169;SDS011;29836;52.286;9.576;2023-02-28T12:24:25;1.75;;;1.20;;
44169;SDS011;29836;52.286;9.576;2023-02-28T12:27:03;1.80;;;1.15;;
44169;SDS011;29836;52.286;9.576;2023-02-28T12:29:38;2.70;;;1.35;;
44169;SDS011;29836;52.286;9.576;2023-02-28T12:32:27;2.88;;;1.33;;
44169;SDS011;29836;52.286;9.576;2023-02-28T12:34:57;2.53;;;1.42;;
44169;SDS011;29836;52.286;9.576;2023-02-28T12:37:29;2.35;;;1.17;;
44169;SDS011;29836;52.286;9.576;2023-02-28T12:40:05;2.78;;;1.55;;
44169;SDS011;29836;52.286;9.576;2023-02-28T12:42:38;2.30;;;1.27;;
44169;SDS011;29836;52.286;9.576;2023-02-28T12:47:36;3.03;;;1.38;;
44169;SDS011;29836;52.286;9.576;2023-02-28T12:50:09;2.08;;;1.10;;
44169;SDS011;29836;52.286;9.576;2023-02-28T12:52:54;2.17;;;1.50;;
44169;SDS011;29836;52.286;9.576;2023-02-28T12:55:37;3.45;;;1.35;;
44169;SDS011;29836;52.286;9.576;2023-02-28T13:09:54;1.38;;;0.98;;
44169;SDS011;29836;52.286;9.576;2023-02-28T13:12:24;2.13;;;1.20;;
44169;SDS011;29836;52.286;9.576;2023-02-28T13:14:51;2.65;;;1.25;;
44169;SDS011;29836;52.286;9.576;2023-02-28T13:17:37;2.78;;;1.63;;
44169;SDS011;29836;52.286;9.576;2023-02-28T13:20:13;3.33;;;1.92;;
44169;SDS011;29836;52.286;9.576;2023-02-28T13:22:42;6.95;;;1.95;;
44169;SDS011;29836;52.286;9.576;2023-02-28T13:27:47;2.08;;;1.00;;
44169;SDS011;29836;52.286;9.576;2023-02-28T13:33:23;2.47;;;1.35;;
44169;SDS011;29836;52.286;9.576;2023-02-28T13:38:44;4.07;;;1.55;;
44169;SDS011;29836;52.286;9.576;2023-02-28T13:44:00;2.22;;;1.50;;
44169;SDS011;29836;52.286;9.576;2023-02-28T13:46:34;2.75;;;1.88;;
44169;SDS011;29836;52.286;9.576;2023-02-28T13:49:25;5.07;;;2.83;;
44169;SDS011;29836;52.286;9.576;2023-02-28T13:57:11;4.53;;;1.80;;
44169;SDS011;29836;52.286;9.576;2023-02-28T13:59:46;3.28;;;1.30;;
44169;SDS011;29836;52.286;9.576;2023-02-28T14:03:01;4.60;;;1.25;;
44169;SDS011;29836;52.286;9.576;2023-02-28T14:05:39;1.55;;;1.10;;
44169;SDS011;29836;52.286;9.576;2023-02-28T14:08:08;2.22;;;1.25;;
44169;SDS011;29836;52.286;9.576;2023-02-28T14:16:13;1.98;;;1.10;;
44169;SDS011;29836;52.286;9.576;2023-02-28T14:18:50;2.70;;;1.50;;
44169;SDS011;29836;52.286;9.576;2023-02-28T14:29:31;3.22;;;1.60;;
44169;SDS011;29836;52.286;9.576;2023-02-28T14:37:20;2.58;;;1.20;;
44169;SDS011;29836;52.286;9.576;2023-02-28T14:39:55;2.45;;;1.20;;
44169;SDS011;29836;52.286;9.576;2023-02-28T14:42:29;1.60;;;1.13;;
44169;SDS011;29836;52.286;9.576;2023-02-28T14:44:59;2.83;;;1.35;;
44169;SDS011;29836;52.286;9.576;2023-02-28T14:47:27;2.08;;;1.33;;
44169;SDS011;29836;52.286;9.576;2023-02-28T14:49:55;3.92;;;1.27;;
44169;SDS011;29836;52.286;9.576;2023-02-28T14:52:23;2.25;;;1.38;;
44169;SDS011;29836;52.286;9.576;2023-02-28T14:54:54;2.35;;;1.45;;
44169;SDS011;29836;52.286;9.576;2023-02-28T14:57:29;4.43;;;1.77;;
44169;SDS011;29836;52.286;9.576;2023-02-28T14:59:56;4.53;;;1.52;;
44169;SDS011;29836;52.286;9.576;2023-02-28T15:02:24;2.97;;;1.65;;
44169;SDS011;29836;52.286;9.576;2023-02-28T15:04:55;3.40;;;1.65;;
44169;SDS011;29836;52.286;9.576;2023-02-28T15:07:22;2.85;;;1.08;;
44169;SDS011;29836;52.286;9.576;2023-02-28T15:10:06;2.03;;;1.25;;
44169;SDS011;29836;52.286;9.576;2023-02-28T15:12:42;2.88;;;1.35;;
44169;SDS011;29836;52.286;9.576;2023-02-28T15:15:14;4.60;;;1.50;;
44169;SDS011;29836;52.286;9.576;2023-02-28T15:17:43;2.05;;;1.38;;
44169;SDS011;29836;52.286;9.576;2023-02-28T15:20:11;3.42;;;1.55;;
44169;SDS011;29836;52.286;9.576;2023-02-28T15:22:39;2.35;;;1.40;;
44169;SDS011;29836;52.286;9.576;2023-02-28T15:25:05;2.47;;;1.20;;
44169;SDS011;29836;52.286;9.576;2023-02-28T15:27:33;3.20;;;1.33;;
44169;SDS011;29836;52.286;9.576;2023-02-28T15:30:04;2.88;;;1.35;;
44169;SDS011;29836;52.286;9.576;2023-02-28T15:32:33;4.78;;;1.33;;
44169;SDS011;29836;52.286;9.576;2023-02-28T15:37:53;4.13;;;2.20;;
44169;SDS011;29836;52.286;9.576;2023-02-28T15:40:36;2.00;;;1.10;;
44169;SDS011;29836;52.286;9.576;2023-02-28T15:43:39;2.08;;;1.10;;
44169;SDS011;29836;52.286;9.576;2023-02-28T15:48:33;3.65;;;1.75;;
44169;SDS011;29836;52.286;9.576;2023-02-28T15:51:09;2.53;;;1.02;;
44169;SDS011;29836;52.286;9.576;2023-02-28T15:56:33;3.00;;;1.70;;
44169;SDS011;29836;52.286;9.576;2023-02-28T15:59:04;4.28;;;1.63;;
44169;SDS011;29836;52.286;9.576;2023-02-28T16:01:32;7.32;;;1.80;;
44169;SDS011;29836;52.286;9.576;2023-02-28T16:04:00;5.70;;;1.85;;
44169;SDS011;29836;52.286;9.576;2023-02-28T16:09:04;1.85;;;1.33;;
44169;SDS011;29836;52.286;9.576;2023-02-28T16:11:32;3.88;;;1.58;;
44169;SDS011;29836;52.286;9.576;2023-02-28T16:13:59;2.85;;;1.83;;
44169;SDS011;29836;52.286;9.576;2023-02-28T16:16:25;2.58;;;1.50;;
44169;SDS011;29836;52.286;9.576;2023-02-28T16:18:51;5.15;;;1.83;;
44169;SDS011;29836;52.286;9.576;2023-02-28T16:21:17;5.80;;;1.65;;
44169;SDS011;29836;52.286;9.576;2023-02-28T16:23:43;5.57;;;1.70;;
44169;SDS011;29836;52.286;9.576;2023-02-28T16:26:10;3.63;;;1.33;;
44169;SDS011;29836;52.286;9.576;2023-02-28T16:28:47;4.13;;;1.80;;
44169;SDS011;29836;52.286;9.576;2023-02-28T16:31:14;4.32;;;1.48;;
44169;SDS011;29836;52.286;9.576;2023-02-28T16:33:41;6.90;;;1.88;;
44169;SDS011;29836;52.286;9.576;2023-02-28T16:36:27;2.83;;;1.73;;
44169;SDS011;29836;52.286;9.576;2023-02-28T16:38:53;4.60;;;1.85;;
44169;SDS011;29836;52.286;9.576;2023-02-28T16:41:20;4.55;;;1.83;;
44169;SDS011;29836;52.286;9.576;2023-02-28T16:43:50;2.45;;;1.50;;
44169;SDS011;29836;52.286;9.576;2023-02-28T16:46:17;3.45;;;1.45;;
44169;SDS011;29836;52.286;9.576;2023-02-28T16:48:44;2.85;;;1.77;;
44169;SDS011;29836;52.286;9.576;2023-02-28T16:51:14;2.78;;;1.70;;
44169;SDS011;29836;52.286;9.576;2023-02-28T16:53:41;3.25;;;1.65;;
44169;SDS011;29836;52.286;9.576;2023-02-28T16:56:11;3.92;;;2.03;;
44169;SDS011;29836;52.286;9.576;2023-02-28T16:58:43;6.30;;;2.10;;
44169;SDS011;29836;52.286;9.576;2023-02-28T17:01:09;3.15;;;1.45;;
44169;SDS011;29836;52.286;9.576;2023-02-28T17:03:35;3.10;;;1.83;;
44169;SDS011;29836;52.286;9.576;2023-02-28T17:06:01;6.45;;;2.25;;
44169;SDS011;29836;52.286;9.576;2023-02-28T17:08:27;3.28;;;1.80;;
44169;SDS011;29836;52.286;9.576;2023-02-28T17:10:54;6.50;;;2.42;;
44169;SDS011;29836;52.286;9.576;2023-02-28T17:13:20;4.03;;;2.08;;